createdAt,value
2023-03-05T00:01:57.015Z,15.85
2023-03-05T00:05:00.267Z,16.67
2023-03-05T00:08:03.535Z,15.38
2023-03-05T00:11:09.788Z,13.98
2023-03-05T00:14:15.562Z,14.38
2023-03-05T00:17:18.849Z,12.25
2023-03-05T00:20:22.118Z,13.88
2023-03-05T00:23:25.284Z,14.05
2023-03-05T00:26:29.480Z,12.18
2023-03-05T00:29:34.046Z,11.13
2023-03-05T00:32:37.723Z,11.23
2023-03-05T00:35:41.476Z,9.40
2023-03-05T00:38:44.883Z,14.13
2023-03-05T00:41:48.104Z,12.60
2023-03-05T00:44:53.304Z,10.45
2023-03-05T00:47:56.493Z,8.77
2023-03-05T00:50:59.752Z,8.20
2023-03-05T00:54:03.029Z,9.68
2023-03-05T00:57:06.807Z,10.98
2023-03-05T01:00:13.386Z,11.00
2023-03-05T01:03:16.601Z,10.40
2023-03-05T01:06:19.837Z,12.77
2023-03-05T01:09:25.187Z,9.38
2023-03-05T01:12:28.577Z,12.88
2023-03-05T01:15:33.137Z,12.07
2023-03-05T01:18:36.396Z,12.98
2023-03-05T01:21:39.566Z,13.90
2023-03-05T01:24:42.774Z,11.30
2023-03-05T01:27:46.122Z,10.93
2023-03-05T01:30:50.762Z,12.80
2023-03-05T01:33:54.101Z,11.75
2023-03-05T01:36:57.230Z,11.57
2023-03-05T01:40:00.400Z,10.90
2023-03-05T01:43:23.400Z,8.82
2023-03-05T01:46:34.696Z,7.88
2023-03-05T01:49:41.061Z,9.48
2023-03-05T01:52:49.760Z,9.82
2023-03-05T01:55:54.879Z,9.82
2023-03-05T01:59:03.468Z,10.32
2023-03-05T02:02:09.050Z,7.82
2023-03-05T02:05:17.299Z,8.75
2023-03-05T02:08:23.053Z,9.40
2023-03-05T02:11:26.985Z,11.85
2023-03-05T02:14:31.185Z,13.13
2023-03-05T02:17:35.810Z,9.48
2023-03-05T02:20:46.380Z,10.32
2023-03-05T02:23:51.255Z,9.48
2023-03-05T02:26:54.916Z,7.70
2023-03-05T02:29:58.128Z,10.65
2023-03-05T02:33:01.502Z,8.20
2023-03-05T02:36:05.781Z,9.75
2023-03-05T02:39:10.758Z,10.77
2023-03-05T02:42:14.381Z,9.45
2023-03-05T02:45:18.318Z,10.07
2023-03-05T02:48:21.623Z,9.65
2023-03-05T02:51:24.983Z,9.93
2023-03-05T02:54:30.476Z,14.80
2023-03-05T02:57:33.863Z,14.07
2023-03-05T03:04:24.173Z,14.05
2023-03-05T03:07:27.367Z,14.82
2023-03-05T03:10:32.356Z,16.98
2023-03-05T03:13:35.594Z,12.35
2023-03-05T03:16:38.755Z,13.27
2023-03-05T03:19:42.839Z,10.98
2023-03-05T03:22:47.176Z,12.07
2023-03-05T03:25:51.790Z,12.15
2023-03-05T03:28:55.051Z,11.10
2023-03-05T03:31:58.457Z,11.48
2023-03-05T03:35:01.922Z,9.13
2023-03-05T03:38:05.305Z,9.18
2023-03-05T03:41:10.259Z,14.60
2023-03-05T03:44:14.190Z,13.02
2023-03-05T03:47:17.658Z,11.38
2023-03-05T03:50:21.536Z,10.45
2023-03-05T03:53:24.707Z,11.98
2023-03-05T03:56:29.384Z,9.07
2023-03-05T03:59:32.523Z,8.70
2023-03-05T04:02:35.700Z,16.27
2023-03-05T04:05:38.914Z,10.60
2023-03-05T04:08:42.185Z,13.02
2023-03-05T04:11:46.778Z,11.90
2023-03-05T04:14:50.791Z,11.93
2023-03-05T04:17:53.923Z,9.63
2023-03-05T04:20:57.098Z,9.88
2023-03-05T04:24:00.258Z,12.82
2023-03-05T04:27:04.912Z,10.48
2023-03-05T04:30:10.348Z,13.68
2023-03-05T04:33:13.548Z,10.30
2023-03-05T04:36:16.771Z,10.02
2023-03-05T04:39:20.986Z,9.45
2023-03-05T04:42:25.516Z,10.43
2023-03-05T04:45:28.719Z,14.80
2023-03-05T04:48:31.883Z,11.10
2023-03-05T04:51:35.090Z,10.27
2023-03-05T04:54:38.253Z,11.13
2023-03-05T04:57:43.088Z,10.55
2023-03-05T05:00:46.235Z,11.98
2023-03-05T05:03:49.363Z,12.43
2023-03-05T05:06:55.898Z,9.35
2023-03-05T05:09:59.088Z,10.80
2023-03-05T05:13:03.589Z,15.00
2023-03-05T05:16:08.420Z,9.98
2023-03-05T05:19:11.990Z,12.10
2023-03-05T05:22:15.184Z,24.20
2023-03-05T05:25:18.451Z,21.05
2023-03-05T05:28:22.953Z,14.20
2023-03-05T05:31:26.164Z,13.20
2023-03-05T05:34:29.328Z,14.60
2023-03-05T05:37:32.489Z,17.90
2023-03-05T05:40:35.730Z,18.48
2023-03-05T05:43:40.790Z,20.38
2023-03-05T05:46:44.119Z,16.80
2023-03-05T05:49:47.458Z,21.35
2023-03-05T05:52:52.161Z,18.52
2023-03-05T05:55:55.314Z,26.05
2023-03-05T05:59:00.011Z,25.23
2023-03-05T06:02:03.663Z,19.25
2023-03-05T06:05:09.251Z,18.30
2023-03-05T06:08:12.453Z,21.80
2023-03-05T06:11:19.409Z,27.30
2023-03-05T06:14:24.215Z,24.77
2023-03-05T06:17:30.804Z,22.52
2023-03-05T06:20:34.169Z,21.30
2023-03-05T06:23:37.560Z,24.02
2023-03-05T06:26:40.814Z,23.67
2023-03-05T06:29:45.958Z,23.00
2023-03-05T06:32:49.151Z,25.15
2023-03-05T06:35:52.445Z,20.60
2023-03-05T06:38:56.208Z,21.45
2023-03-05T06:41:59.436Z,18.33
2023-03-05T06:45:04.855Z,13.90
2023-03-05T06:48:08.520Z,21.85
2023-03-05T06:51:16.352Z,15.55
2023-03-05T06:54:21.696Z,17.95
2023-03-05T06:57:25.008Z,23.05
2023-03-05T07:00:30.843Z,17.63
2023-03-05T07:03:35.109Z,17.85
2023-03-05T07:06:39.807Z,17.13
2023-03-05T07:09:45.957Z,18.05
2023-03-05T07:12:49.276Z,17.60
2023-03-05T07:15:54.254Z,18.40
2023-03-05T07:18:58.883Z,16.17
2023-03-05T07:22:02.120Z,19.60
2023-03-05T07:25:05.979Z,12.90
2023-03-05T07:28:10.593Z,12.75
2023-03-05T07:31:17.799Z,14.80
2023-03-05T07:34:21.174Z,13.68
2023-03-05T07:37:24.647Z,12.52
2023-03-05T07:40:27.904Z,13.38
2023-03-05T07:43:31.262Z,14.55
2023-03-05T07:46:36.247Z,42.85
2023-03-05T07:49:41.526Z,27.38
2023-03-05T07:52:44.740Z,14.80
2023-03-05T07:55:48.473Z,18.08
2023-03-05T07:58:51.811Z,11.98
2023-03-05T08:01:56.607Z,14.70
2023-03-05T08:04:59.964Z,13.93
2023-03-05T08:08:03.522Z,11.45
2023-03-05T08:11:07.532Z,20.73
2023-03-05T08:14:11.380Z,19.38
2023-03-05T08:17:15.948Z,14.82
2023-03-05T08:20:19.987Z,14.82
2023-03-05T08:23:23.231Z,7.43
2023-03-05T08:26:29.075Z,13.35
2023-03-05T08:29:32.233Z,9.23
2023-03-05T08:32:36.804Z,9.52
2023-03-05T08:35:40.207Z,8.65
2023-03-05T08:38:44.605Z,9.73
2023-03-05T08:41:47.858Z,8.27
2023-03-05T08:44:51.172Z,9.68
2023-03-05T08:47:57.227Z,10.85
2023-03-05T08:51:06.722Z,9.48
2023-03-05T08:54:10.956Z,5.97
2023-03-05T08:57:14.163Z,21.55
2023-03-05T09:00:18.023Z,9.40
2023-03-05T09:03:22.713Z,8.45
2023-03-05T09:06:26.321Z,10.40
2023-03-05T09:09:30.051Z,7.55
2023-03-05T09:12:33.396Z,10.57
2023-03-05T09:15:36.788Z,9.20
2023-03-05T09:18:42.077Z,7.97
2023-03-05T09:21:45.366Z,10.32
2023-03-05T09:24:48.609Z,15.38
2023-03-05T09:27:51.828Z,10.02
2023-03-05T09:30:55.295Z,9.73
2023-03-05T09:34:02.476Z,6.82
2023-03-05T09:37:05.991Z,8.57
2023-03-05T09:40:13.789Z,8.23
2023-03-05T09:43:33.756Z,7.60
2023-03-05T09:46:47.717Z,10.68
2023-03-05T09:50:02.171Z,7.93
2023-03-05T09:53:16.057Z,6.57
2023-03-05T09:56:23.992Z,36.15
2023-03-05T09:59:32.821Z,28.55
2023-03-05T10:02:38.858Z,6.70
2023-03-05T10:05:54.647Z,10.82
2023-03-05T10:09:03.983Z,10.75
2023-03-05T10:12:13.798Z,12.32
2023-03-05T10:15:22.041Z,13.10
2023-03-05T10:18:36.340Z,17.75
2023-03-05T10:21:48.288Z,5.22
2023-03-05T10:25:04.142Z,7.40
2023-03-05T10:28:17.824Z,14.57
2023-03-05T10:31:40.559Z,7.47
2023-03-05T10:35:12.264Z,7.80
2023-03-05T10:38:49.150Z,5.80
2023-03-05T10:42:05.895Z,9.52
2023-03-05T10:45:18.274Z,26.17
2023-03-05T10:48:33.308Z,12.02
2023-03-05T10:51:42.349Z,10.15
2023-03-05T10:54:47.471Z,5.72
2023-03-05T10:57:50.819Z,10.07
2023-03-05T11:01:06.409Z,9.82
2023-03-05T11:04:27.115Z,10.90
2023-03-05T11:07:37.971Z,8.60
2023-03-05T11:10:43.178Z,8.43
2023-03-05T11:13:55.733Z,9.80
2023-03-05T11:16:59.110Z,9.57
2023-03-05T11:20:34.978Z,7.90
2023-03-05T11:23:39.072Z,7.75
2023-03-05T11:26:50.711Z,22.67
2023-03-05T11:29:54.693Z,7.85
2023-03-05T11:33:15.539Z,10.85
2023-03-05T11:36:25.428Z,17.63
2023-03-05T11:39:30.444Z,15.18
2023-03-05T11:42:35.509Z,22.48
2023-03-05T11:45:40.112Z,10.45
2023-03-05T11:48:46.224Z,15.90
2023-03-05T11:51:58.236Z,15.25
2023-03-05T11:55:06.713Z,14.57
2023-03-05T11:58:29.594Z,12.35
2023-03-05T12:01:46.754Z,11.27
2023-03-05T12:04:51.556Z,12.32
2023-03-05T12:07:59.625Z,11.45
2023-03-05T12:11:07.330Z,11.48
2023-03-05T12:14:20.250Z,18.42
2023-03-05T12:17:31.540Z,9.25
2023-03-05T12:20:44.358Z,26.48
2023-03-05T12:23:53.599Z,13.85
2023-03-05T12:27:07.241Z,12.43
2023-03-05T12:30:46.528Z,11.07
2023-03-05T12:33:50.385Z,10.85
2023-03-05T12:36:55.665Z,14.38
2023-03-05T12:40:01.069Z,14.43
2023-03-05T12:43:05.390Z,15.32
2023-03-05T12:46:29.027Z,16.63
2023-03-05T12:49:39.540Z,17.35
2023-03-05T12:52:47.236Z,13.77
2023-03-05T12:56:02.006Z,10.20
2023-03-05T12:59:05.462Z,12.75
2023-03-05T13:02:23.111Z,10.70
2023-03-05T13:05:30.613Z,12.60
2023-03-05T13:08:37.324Z,11.25
2023-03-05T13:11:40.967Z,13.52
2023-03-05T13:14:46.557Z,49.35
2023-03-05T13:17:56.622Z,16.90
2023-03-05T13:21:05.494Z,17.05
2023-03-05T13:24:18.652Z,21.30
2023-03-05T13:27:25.716Z,29.70
2023-03-05T13:30:30.759Z,28.88
2023-03-05T13:33:37.495Z,21.40
2023-03-05T13:36:43.020Z,14.82
2023-03-05T13:39:55.074Z,21.35
2023-03-05T13:43:12.154Z,17.10
2023-03-05T13:46:25.980Z,20.05
2023-03-05T13:49:30.671Z,13.70
2023-03-05T13:52:36.080Z,15.77
2023-03-05T13:55:40.313Z,12.52
2023-03-05T13:58:53.294Z,16.38
2023-03-05T14:01:57.989Z,16.30
2023-03-05T14:05:03.303Z,26.88
2023-03-05T14:08:06.874Z,24.40
2023-03-05T14:11:15.342Z,40.88
2023-03-05T14:14:21.001Z,35.45
2023-03-05T14:17:33.396Z,58.35
2023-03-05T14:20:39.133Z,40.05
2023-03-05T14:23:45.036Z,32.65
2023-03-05T14:26:52.106Z,31.65
2023-03-05T14:29:56.868Z,45.05
2023-03-05T14:33:01.802Z,88.60
2023-03-05T14:36:10.426Z,137.70
2023-03-05T14:39:28.696Z,134.70
2023-03-05T14:42:38.386Z,54.60
2023-03-05T14:45:48.002Z,85.95
2023-03-05T14:48:51.921Z,96.50
2023-03-05T14:51:58.170Z,76.90
2023-03-05T14:55:02.047Z,146.50
2023-03-05T14:58:12.386Z,82.47
2023-03-05T15:04:20.250Z,45.70
2023-03-05T15:07:31.180Z,43.05
2023-03-05T15:10:35.520Z,39.47
2023-03-05T15:13:39.803Z,59.22
2023-03-05T15:16:46.722Z,54.33
2023-03-05T15:19:53.172Z,53.05
2023-03-05T15:23:04.142Z,41.00
2023-03-05T15:26:13.152Z,66.05
2023-03-05T15:29:16.729Z,67.57
2023-03-05T15:32:20.291Z,50.83
2023-03-05T15:35:26.831Z,43.28
2023-03-05T15:38:31.908Z,63.60
2023-03-05T15:41:36.225Z,76.43
2023-03-05T15:44:40.571Z,108.20
2023-03-05T15:47:44.252Z,62.33
2023-03-05T15:50:47.793Z,64.97
2023-03-05T15:53:59.905Z,68.95
2023-03-05T15:57:09.491Z,94.75
2023-03-05T16:00:16.072Z,92.53
2023-03-05T16:03:19.647Z,167.82
2023-03-05T16:06:32.510Z,129.35
2023-03-05T16:09:40.475Z,94.60
2023-03-05T16:12:47.307Z,77.95
2023-03-05T16:15:55.047Z,61.65
2023-03-05T16:19:04.195Z,55.25
2023-03-05T16:22:16.355Z,79.13
2023-03-05T16:25:23.560Z,55.65
2023-03-05T16:28:32.119Z,70.13
2023-03-05T16:31:42.156Z,67.85
2023-03-05T16:34:47.704Z,126.80
2023-03-05T16:37:56.053Z,58.08
2023-03-05T16:41:08.285Z,75.10
2023-03-05T16:44:13.438Z,45.95
2023-03-05T16:47:20.344Z,251.23
2023-03-05T16:50:33.666Z,178.27
2023-03-05T16:53:38.943Z,33.30
2023-03-05T16:56:49.727Z,48.17
2023-03-05T17:00:01.684Z,48.40
2023-03-05T17:03:07.052Z,74.35
2023-03-05T17:06:17.046Z,41.25
2023-03-05T17:09:24.577Z,46.88
2023-03-05T17:12:29.826Z,50.28
2023-03-05T17:15:34.091Z,52.63
2023-03-05T17:18:37.918Z,57.38
2023-03-05T17:21:42.735Z,57.17
2023-03-05T17:24:47.605Z,53.45
2023-03-05T17:27:55.326Z,56.25
2023-03-05T17:31:01.494Z,57.40
2023-03-05T17:34:05.363Z,61.72
2023-03-05T17:37:09.685Z,80.25
2023-03-05T17:40:15.419Z,62.10
2023-03-05T17:43:22.092Z,69.72
2023-03-05T17:46:26.475Z,54.50
2023-03-05T17:49:30.946Z,83.03
2023-03-05T17:52:39.875Z,65.57
2023-03-05T17:55:44.216Z,58.80
2023-03-05T17:58:50.642Z,66.85
2023-03-05T18:01:54.830Z,66.38
2023-03-05T18:05:04.289Z,58.22
2023-03-05T18:08:08.465Z,66.13
2023-03-05T18:11:14.586Z,76.03
2023-03-05T18:14:19.519Z,67.85
2023-03-05T18:17:23.846Z,67.00
2023-03-05T18:20:31.272Z,58.33
2023-03-05T18:23:34.813Z,56.72
2023-03-05T18:26:38.468Z,66.43
2023-03-05T18:29:46.708Z,73.15
2023-03-05T18:32:53.901Z,68.20
2023-03-05T18:36:02.297Z,64.75
2023-03-05T18:39:11.280Z,74.47
2023-03-05T18:42:20.258Z,71.70
2023-03-05T18:45:31.686Z,73.70
2023-03-05T18:48:36.314Z,83.63
2023-03-05T18:51:47.406Z,88.90
2023-03-05T18:54:52.526Z,104.63
2023-03-05T18:58:08.632Z,81.28
2023-03-05T19:01:20.935Z,108.53
2023-03-05T19:04:33.535Z,96.25
2023-03-05T19:07:49.849Z,92.95
2023-03-05T19:11:10.671Z,106.55
2023-03-05T19:14:15.797Z,95.20
2023-03-05T19:17:21.036Z,82.63
2023-03-05T19:20:24.676Z,89.22
2023-03-05T19:23:28.792Z,100.97
2023-03-05T19:26:32.208Z,74.03
2023-03-05T19:29:37.629Z,81.07
2023-03-05T19:32:43.033Z,81.25
2023-03-05T19:35:46.499Z,81.03
2023-03-05T19:38:49.875Z,96.75
2023-03-05T19:41:53.523Z,81.80
2023-03-05T19:44:59.652Z,81.63
2023-03-05T19:48:05.013Z,82.78
2023-03-05T19:51:11.496Z,74.90
2023-03-05T19:54:18.312Z,71.10
2023-03-05T19:57:21.698Z,71.82
2023-03-05T20:00:27.520Z,79.03
2023-03-05T20:03:32.902Z,69.82
2023-03-05T20:06:36.258Z,72.78
2023-03-05T20:09:40.320Z,72.95
2023-03-05T20:12:47.737Z,84.03
2023-03-05T20:15:51.168Z,85.25
2023-03-05T20:18:56.723Z,80.47
2023-03-05T20:21:59.961Z,75.97
2023-03-05T20:25:03.265Z,70.00
2023-03-05T20:28:06.552Z,68.57
2023-03-05T20:31:10.449Z,69.75
2023-03-05T20:34:17.241Z,72.22
2023-03-05T20:38:08.329Z,73.55
2023-03-05T20:41:21.805Z,69.93
2023-03-05T20:44:25.216Z,72.25
2023-03-05T20:47:40.946Z,81.03
2023-03-05T20:50:46.901Z,82.25
2023-03-05T20:53:50.621Z,79.97
2023-03-05T20:56:54.269Z,89.20
2023-03-05T20:59:57.593Z,84.13
2023-03-05T21:03:00.845Z,87.32
2023-03-05T21:06:07.136Z,88.90
2023-03-05T21:09:10.417Z,84.95
2023-03-05T21:12:13.653Z,79.22
2023-03-05T21:15:19.181Z,80.85
2023-03-05T21:18:23.701Z,92.88
2023-03-05T21:21:28.383Z,91.57
2023-03-05T21:25:05.687Z,90.95
2023-03-05T21:28:18.807Z,88.43
2023-03-05T21:31:23.801Z,89.97
2023-03-05T21:34:27.433Z,99.03
2023-03-05T21:37:32.508Z,92.63
2023-03-05T21:40:37.686Z,91.82
2023-03-05T21:43:40.952Z,89.20
2023-03-05T21:46:44.275Z,94.18
2023-03-05T21:49:47.632Z,88.72
2023-03-05T21:52:52.849Z,85.78
2023-03-05T21:56:24.021Z,84.25
2023-03-05T21:59:27.318Z,82.75
2023-03-05T22:02:30.563Z,88.03
2023-03-05T22:05:33.798Z,85.03
2023-03-05T22:08:38.923Z,89.78
2023-03-05T22:11:42.608Z,82.55
2023-03-05T22:14:45.786Z,92.93
2023-03-05T22:17:48.958Z,86.30
2023-03-05T22:20:52.390Z,86.70
2023-03-05T22:23:58.010Z,83.30
2023-03-05T22:27:01.930Z,81.82
2023-03-05T22:30:05.866Z,82.80
2023-03-05T22:33:09.695Z,89.28
2023-03-05T22:36:15.014Z,89.00
2023-03-05T22:39:19.658Z,100.65
2023-03-05T22:42:23.145Z,99.15
2023-03-05T22:45:26.329Z,98.85
2023-03-05T22:48:29.658Z,86.78
2023-03-05T22:51:32.900Z,86.40
2023-03-05T22:54:37.496Z,90.35
2023-03-05T22:57:41.366Z,86.03
2023-03-05T23:00:44.660Z,89.63
2023-03-05T23:04:47.496Z,95.53
2023-03-05T23:07:50.718Z,92.18
2023-03-05T23:10:55.275Z,83.90
2023-03-05T23:13:58.468Z,89.40
2023-03-05T23:17:01.655Z,89.05
2023-03-05T23:20:08.126Z,91.07
2023-03-05T23:23:11.494Z,87.25
2023-03-05T23:26:16.047Z,83.15
2023-03-05T23:30:08.058Z,80.75
2023-03-05T23:33:17.024Z,90.45
2023-03-05T23:36:24.363Z,88.10
2023-03-05T23:39:27.582Z,94.95
2023-03-05T23:42:32.875Z,101.50
2023-03-05T23:45:36.162Z,97.63
2023-03-05T23:48:39.436Z,85.15
2023-03-05T23:51:42.558Z,88.28
2023-03-05T23:54:45.751Z,80.50
2023-03-05T23:57:50.414Z,76.55
